Terminal Aerodrome Forecast
Issued by NWS Wilmington, OH

Current Version | Previous Version | Graphics & Text | Print | Product List | Glossary On
Versions: 1 2 3 4 5 6 7 8 9 10 11 12 13 14 15
000
FTUS41 KILN 182231 AAA
TAFDAY
TAF AMD
KDAY 182231Z 1823/1918 VRB05KT P6SM VCSH BKN045 OVC080
      TEMPO 1823/1824 29018G30KT 5SM SHRA OVC040
     FM190100 29014G26KT P6SM BKN040
     FM190600 29016G26KT P6SM VCSH OVC012
     FM190800 30014G24KT P6SM VCSH OVC008
     FM191300 33012G20KT P6SM OVC015
     FM191600 32014G20KT P6SM BKN025=

USA.gov is the U.S. government's official web portal to all federal, state and local government web resources and services.